Time;durP1;ratioP1;P1;durP2;ratioP2;P2;SDS_P1;SDS_P2;PMS_P1;PMS_P2;Temp;Humidity;BMP_temperature;BMP_pressure;BME280_temperature;BME280_humidity;BME280_pressure;Samples;Min_cycle;Max_cycle;Signal;HPM_P1;HPM_P2
2022/08/26 00:00:10;;;;;;;12.52;2.30;;;;;;;21.16;46.58;93544.16;4972797;28;20038;-80
2022/08/26 00:02:35;;;;;;;10.55;2.13;;;;;;;21.45;46.35;93570.03;4971548;28;20093;-80
2022/08/26 00:05:00;;;;;;;11.90;2.15;;;;;;;21.35;45.42;93562.69;4970371;28;20549;-80
2022/08/26 00:07:26;;;;;;;5.70;2.20;;;;;;;21.57;45.56;93570.81;4971057;28;20018;-80
2022/08/26 00:09:51;;;;;;;4.50;2.13;;;;;;;21.54;46.02;93549.91;4971089;28;20041;-80
2022/08/26 00:12:17;;;;;;;6.78;2.13;;;;;;;21.76;45.61;93564.97;4969800;28;20026;-82
2022/08/26 00:14:42;;;;;;;14.02;2.97;;;;;;;21.62;46.19;93568.50;4970822;28;20657;-81
2022/08/26 00:17:08;;;;;;;8.13;2.17;;;;;;;21.53;46.47;93537.53;4960911;28;20030;-79
2022/08/26 00:19:33;;;;;;;12.38;3.38;;;;;;;21.66;46.95;93550.31;4971614;28;20033;-79
2022/08/26 00:21:59;;;;;;;2.80;1.90;;;;;;;21.62;46.71;93565.00;4953218;28;20109;-81
2022/08/26 00:24:24;;;;;;;5.88;3.42;;;;;;;21.53;46.85;93542.97;4970938;28;20011;-79
2022/08/26 00:26:50;;;;;;;13.63;2.88;;;;;;;21.68;46.09;93558.06;4971414;28;20026;-79
2022/08/26 00:29:16;;;;;;;6.13;1.55;;;;;;;21.10;45.48;93491.59;4971755;28;20535;-80
2022/08/26 00:31:42;;;;;;;5.00;2.50;;;;;;;21.52;45.19;93533.28;4968743;28;20048;-80
2022/08/26 00:34:09;;;;;;;14.73;2.65;;;;;;;21.43;44.97;93542.59;4968323;28;20030;-79
2022/08/26 00:36:34;;;;;;;8.68;1.98;;;;;;;21.74;45.70;93551.84;4971038;28;20034;-79
2022/08/26 00:39:00;;;;;;;12.10;3.00;;;;;;;21.53;45.84;93529.44;4967126;28;20497;-79
2022/08/26 00:41:25;;;;;;;12.07;2.95;;;;;;;21.67;46.11;93542.97;4971518;28;20018;-80
2022/08/26 00:43:51;;;;;;;9.07;2.33;;;;;;;21.61;45.18;93522.91;4970657;28;20528;-79
2022/08/26 00:46:30;;;;;;;14.98;2.95;;;;;;;21.90;45.06;93548.75;4970503;28;20395;-80
2022/08/26 00:49:06;;;;;;;9.88;2.40;;;;;;;21.72;43.42;93542.56;4971376;28;20484;-79
2022/08/26 00:51:38;;;;;;;10.30;1.88;;;;;;;21.58;43.89;93520.94;4970905;28;20022;-79
2022/08/26 00:54:08;;;;;;;11.20;3.22;;;;;;;21.38;45.85;93540.28;4971572;28;20019;-80
2022/08/26 00:56:47;;;;;;;11.88;2.38;;;;;;;21.20;45.19;93523.28;4970490;28;20375;-80
2022/08/26 00:59:14;;;;;;;5.60;1.88;;;;;;;21.13;45.34;93544.13;4971312;28;20026;-81
2022/08/26 01:01:41;;;;;;;8.45;3.42;;;;;;;21.41;45.48;93568.50;4970094;28;20023;-79
2022/08/26 01:04:09;;;;;;;2.85;1.65;;;;;;;21.46;45.68;93568.84;4959850;28;20033;-80
2022/08/26 01:06:35;;;;;;;8.43;2.38;;;;;;;21.55;46.49;93554.22;4969810;28;20022;-79
2022/08/26 01:09:00;;;;;;;11.85;3.00;;;;;;;21.36;46.16;93512.81;4969935;28;20700;-79
2022/08/26 01:11:26;;;;;;;12.02;3.67;;;;;;;21.54;46.06;93542.56;4968807;28;20026;-80
2022/08/26 01:13:55;;;;;;;5.30;2.55;;;;;;;21.69;46.20;93548.78;4970308;28;20023;-80
2022/08/26 01:16:21;;;;;;;15.13;3.47;;;;;;;21.68;46.95;93547.22;4970683;28;20114;-79
2022/08/26 01:18:47;;;;;;;9.85;2.10;;;;;;;21.61;46.69;93548.00;4970851;28;20617;-79
2022/08/26 01:21:28;;;;;;;6.72;2.55;;;;;;;21.29;46.18;93490.44;4969799;28;20018;-79
2022/08/26 01:23:55;;;;;;;9.18;2.92;;;;;;;21.64;46.94;93533.72;4970658;28;20022;-79
2022/08/26 01:26:29;;;;;;;8.07;2.17;;;;;;;21.55;47.21;93527.16;4959654;28;20034;-81
2022/08/26 01:28:58;;;;;;;11.63;2.17;;;;;;;21.72;46.93;93553.41;4968406;28;20062;-80
2022/08/26 01:31:27;;;;;;;5.70;2.15;;;;;;;21.56;47.12;93531.41;4971750;28;20069;-80
2022/08/26 01:34:05;;;;;;;13.82;3.78;;;;;;;21.68;47.77;93544.50;4945825;28;20043;-79
2022/08/26 01:36:30;;;;;;;9.88;2.15;;;;;;;21.30;47.81;93500.88;4931133;28;20023;-80
2022/08/26 01:38:56;;;;;;;10.35;2.55;;;;;;;21.65;48.34;93556.91;4930591;28;20034;-79
2022/08/26 01:41:22;;;;;;;10.35;3.88;;;;;;;21.72;47.57;93542.56;4929978;28;20401;-80
2022/08/26 01:43:53;;;;;;;7.05;2.58;;;;;;;21.64;47.64;93530.22;4929856;28;20433;-79
2022/08/26 01:46:21;;;;;;;6.82;2.00;;;;;;;21.52;47.80;93517.06;4930700;28;20415;-80
2022/08/26 01:48:49;;;;;;;5.40;2.33;;;;;;;21.60;47.55;93534.88;4929987;28;20023;-78
2022/08/26 01:51:17;;;;;;;7.80;2.40;;;;;;;21.65;48.39;93548.78;4931309;28;20055;-79
2022/08/26 01:53:43;;;;;;;7.57;3.22;;;;;;;21.22;47.75;93487.72;4931196;28;20090;-79
2022/08/26 01:56:10;;;;;;;11.55;2.35;;;;;;;21.22;48.39;93515.53;4930466;28;20027;-80
2022/08/26 01:58:44;;;;;;;7.50;1.67;;;;;;;21.39;49.07;93547.22;4931669;28;20059;-79
2022/08/26 02:01:10;;;;;;;8.02;2.15;;;;;;;21.46;48.50;93546.47;4930303;28;20050;-80
2022/08/26 02:03:42;;;;;;;15.20;2.75;;;;;;;21.43;48.78;93541.81;4931142;28;20031;-79
2022/08/26 02:06:07;;;;;;;7.20;2.55;;;;;;;21.29;48.37;93520.97;4930606;28;20629;-79
2022/08/26 02:08:40;;;;;;;11.43;2.35;;;;;;;21.49;48.49;93542.97;4929594;28;20488;-80
2022/08/26 02:11:06;;;;;;;10.80;2.92;;;;;;;21.52;48.64;93544.88;4929706;28;20039;-80
2022/08/26 02:13:36;;;;;;;19.17;3.17;;;;;;;21.52;48.41;93536.00;4931574;28;20303;-80
2022/08/26 02:16:05;;;;;;;9.85;2.58;;;;;;;21.43;48.73;93526.34;4930655;28;20411;-80
2022/08/26 02:18:34;;;;;;;9.55;2.65;;;;;;;21.50;48.56;93535.63;4929445;28;20028;-80
2022/08/26 02:21:00;;;;;;;8.25;2.75;;;;;;;21.41;48.01;93525.97;4930897;28;20023;-79
2022/08/26 02:23:25;;;;;;;10.48;2.38;;;;;;;21.38;48.40;93523.25;4929376;28;20485;-79
2022/08/26 02:26:09;;;;;;;15.95;2.17;;;;;;;21.57;48.60;93546.47;4931381;28;21399;-79
2022/08/26 02:28:50;;;;;;;15.38;2.50;;;;;;;21.46;48.18;93535.63;4930941;28;20027;-79
2022/08/26 02:31:15;;;;;;;17.88;2.38;;;;;;;21.04;48.62;93482.34;4930317;28;20032;-80
2022/08/26 02:33:41;;;;;;;8.27;2.42;;;;;;;21.35;48.26;93532.94;4926103;28;1149245;-80
2022/08/26 02:36:06;;;;;;;9.88;2.00;;;;;;;21.28;47.53;93535.63;4969592;28;20112;-79
2022/08/26 02:38:33;;;;;;;10.25;2.65;;;;;;;20.90;47.42;93466.91;4955779;28;20029;-81
2022/08/26 02:40:59;;;;;;;11.63;1.88;;;;;;;21.13;48.15;93512.47;4973285;28;20060;-80
2022/08/26 02:43:25;;;;;;;9.57;1.98;;;;;;;21.28;48.42;93524.03;4974443;28;20394;-79
2022/08/26 02:45:50;;;;;;;10.90;3.28;;;;;;;21.34;48.30;93536.03;4972572;28;20056;-79
2022/08/26 02:48:18;;;;;;;10.18;2.15;;;;;;;21.38;48.02;93547.59;4971415;28;20250;-79
2022/08/26 02:50:44;;;;;;;13.75;2.33;;;;;;;21.26;48.79;93548.00;4972219;28;20112;-79
2022/08/26 02:53:10;;;;;;;7.97;2.53;;;;;;;21.23;48.99;93540.66;4973944;28;20019;-79
2022/08/26 02:55:37;;;;;;;8.68;2.42;;;;;;;20.79;48.96;93481.53;4973754;28;20050;-80
2022/08/26 02:58:03;;;;;;;5.97;2.70;;;;;;;21.12;49.07;93531.78;4972239;28;20467;-81
2022/08/26 03:00:30;;;;;;;7.97;2.10;;;;;;;21.18;48.30;93547.22;4973996;28;20119;-80
2022/08/26 03:02:56;;;;;;;14.18;2.70;;;;;;;20.77;48.08;93490.03;4970014;28;20529;-80
2022/08/26 03:05:22;;;;;;;23.88;3.00;;;;;;;21.21;48.02;93551.88;4973118;28;20030;-80
2022/08/26 03:07:48;;;;;;;7.85;2.90;;;;;;;21.20;48.15;93542.22;4963071;28;20080;-79
2022/08/26 03:10:15;;;;;;;10.77;2.97;;;;;;;21.23;48.86;93527.91;4973254;28;20022;-79
2022/08/26 03:12:41;;;;;;;11.18;1.90;;;;;;;21.25;48.68;93531.00;4956508;28;20057;-80
2022/08/26 03:15:08;;;;;;;8.55;3.72;;;;;;;21.11;48.93;93528.31;4970079;28;20633;-80
2022/08/26 03:17:33;;;;;;;7.88;2.25;;;;;;;21.04;49.40;93531.00;4973597;28;20029;-79
2022/08/26 03:20:00;;;;;;;6.80;2.03;;;;;;;21.13;49.51;93552.25;4972081;28;20026;-80
2022/08/26 03:22:25;;;;;;;7.20;2.78;;;;;;;20.97;49.45;93537.16;4962067;28;20023;-80
2022/08/26 03:24:51;;;;;;;6.78;2.42;;;;;;;20.82;49.23;93502.38;4973079;28;20054;-80
2022/08/26 03:27:16;;;;;;;14.98;2.60;;;;;;;20.90;48.97;93512.06;4972395;28;20062;-79
2022/08/26 03:32:26;;;;;;;11.05;2.58;;;;;;;20.85;48.44;93523.22;4971781;28;20419;-80
2022/08/26 03:34:51;;;;;;;9.32;2.42;;;;;;;20.84;48.63;93516.28;4974921;28;20030;-79
2022/08/26 03:37:17;;;;;;;5.55;2.08;;;;;;;20.87;49.20;93542.59;4970371;28;20081;-80
2022/08/26 03:39:43;;;;;;;12.18;2.72;;;;;;;20.70;49.82;93524.38;4954737;28;20113;-79
2022/08/26 03:42:08;;;;;;;4.75;2.33;;;;;;;20.73;49.73;93507.41;4970706;28;20445;-79
2022/08/26 03:44:35;;;;;;;9.50;2.10;;;;;;;20.77;48.79;93510.88;4970747;28;20038;-79
2022/08/26 03:47:01;;;;;;;9.82;1.63;;;;;;;20.95;49.08;93533.31;4953988;28;20022;-79
2022/08/26 03:49:26;;;;;;;8.45;2.10;;;;;;;21.03;49.39;93541.03;4960495;28;20080;-80
2022/08/26 03:51:51;;;;;;;9.55;2.65;;;;;;;20.80;49.21;93504.69;4969615;28;20809;-79
2022/08/26 03:54:17;;;;;;;8.02;3.58;;;;;;;20.67;49.12;93507.00;4971083;28;20224;-79
2022/08/26 03:56:42;;;;;;;7.85;3.17;;;;;;;20.74;49.24;93507.00;4971942;28;20383;-81
2022/08/26 03:59:08;;;;;;;5.88;2.70;;;;;;;20.65;49.04;93503.91;4971930;28;20026;-79
2022/08/26 04:01:34;;;;;;;12.13;2.80;;;;;;;20.79;49.25;93508.53;4971713;28;20026;-79
2022/08/26 04:04:00;;;;;;;7.95;1.80;;;;;;;20.93;49.12;93531.00;4972014;28;20136;-79
2022/08/26 04:06:27;;;;;;;9.68;2.75;;;;;;;21.01;48.95;93540.66;4961349;28;21627;-79
2022/08/26 04:08:54;;;;;;;4.90;2.40;;;;;;;20.93;48.84;93535.63;4973426;28;20494;-79
2022/08/26 04:11:29;;;;;;;11.48;3.05;;;;;;;20.91;49.43;93529.84;4971470;28;20026;-80
2022/08/26 04:13:55;;;;;;;17.63;2.60;;;;;;;21.01;49.68;93540.66;4970802;28;20073;-78
2022/08/26 04:16:20;;;;;;;12.45;2.30;;;;;;;21.07;48.68;93541.03;4971101;28;20094;-80
2022/08/26 04:18:45;;;;;;;14.73;3.60;;;;;;;21.08;48.40;93542.59;4969413;28;20403;-80
2022/08/26 04:21:11;;;;;;;10.70;2.35;;;;;;;21.00;49.03;93525.59;4969953;28;20106;-80
2022/08/26 04:23:38;;;;;;;9.95;2.22;;;;;;;21.08;49.29;93541.81;4969111;28;21000;-79
2022/08/26 04:26:04;;;;;;;8.65;2.63;;;;;;;20.94;49.03;93521.72;4971898;28;20467;-80
2022/08/26 04:28:30;;;;;;;7.75;2.53;;;;;;;20.99;49.52;93534.09;4970320;28;20026;-80
2022/08/26 04:30:56;;;;;;;8.25;2.28;;;;;;;20.94;48.07;93537.94;4969883;28;20417;-79
2022/08/26 04:33:22;;;;;;;4.65;1.90;;;;;;;20.63;49.42;93511.59;4972011;28;20046;-80
2022/08/26 04:35:48;;;;;;;14.50;2.58;;;;;;;20.79;50.82;93530.94;4959297;28;20049;-80
2022/08/26 04:38:15;;;;;;;10.60;1.88;;;;;;;20.98;50.15;93543.34;4971297;28;20030;-81
2022/08/26 04:40:45;;;;;;;7.75;2.20;;;;;;;20.89;49.30;93510.53;4968317;28;20026;-81
2022/08/26 04:43:10;;;;;;;12.38;2.40;;;;;;;21.01;49.28;93521.75;4971797;28;20029;-82
2022/08/26 04:45:39;;;;;;;4.20;2.42;;;;;;;21.01;50.42;93537.97;4970335;28;20023;-81
2022/08/26 04:48:05;;;;;;;11.02;3.13;;;;;;;20.93;48.79;93524.81;4969867;28;20161;-80
2022/08/26 04:50:31;;;;;;;6.20;2.30;;;;;;;20.98;48.92;93522.50;4969150;28;20572;-80
2022/08/26 04:52:57;;;;;;;7.13;2.78;;;;;;;20.99;49.65;93525.97;4952011;28;20051;-80
2022/08/26 04:55:24;;;;;;;15.05;3.72;;;;;;;21.00;48.36;93531.00;4970358;28;20482;-81
2022/08/26 04:57:50;;;;;;;17.20;2.85;;;;;;;21.12;48.10;93532.53;4952602;28;20034;-77
2022/08/26 05:00:15;;;;;;;4.15;2.47;;;;;;;20.90;47.50;93493.16;4959518;28;20030;-79
2022/08/26 05:02:41;;;;;;;3.17;1.80;;;;;;;21.08;47.72;93518.25;4970573;28;20532;-81
2022/08/26 05:05:07;;;;;;;12.27;1.90;;;;;;;21.17;47.13;93526.00;4967834;28;20400;-80
2022/08/26 05:07:33;;;;;;;10.35;2.97;;;;;;;21.32;47.45;93541.81;4970350;28;20026;-80
2022/08/26 05:09:59;;;;;;;4.90;2.85;;;;;;;21.39;47.61;93543.75;4969293;28;20069;-80
2022/08/26 05:12:24;;;;;;;10.10;2.00;;;;;;;21.36;47.52;93526.34;4969992;28;20102;-80
2022/08/26 05:14:50;;;;;;;6.82;2.08;;;;;;;21.45;47.46;93540.28;4969851;28;20562;-80
2022/08/26 05:17:15;;;;;;;11.50;2.13;;;;;;;21.45;47.29;93528.69;4970774;28;20046;-80
2022/08/26 05:19:41;;;;;;;9.05;2.30;;;;;;;21.15;47.12;93493.16;4970291;28;20030;-80
2022/08/26 05:22:06;;;;;;;8.30;3.75;;;;;;;21.44;46.68;93535.25;4969712;28;20211;-81
2022/08/26 05:24:31;;;;;;;11.48;2.25;;;;;;;21.56;49.45;93555.75;4969951;28;20081;-80
2022/08/26 05:26:57;;;;;;;11.80;3.25;;;;;;;21.33;47.58;93551.47;4954303;28;20131;-80
2022/08/26 05:29:22;;;;;;;9.38;2.55;;;;;;;21.24;48.62;93528.69;4970998;28;20152;-81
2022/08/26 05:31:50;;;;;;;7.32;2.05;;;;;;;21.54;48.13;93552.63;4969318;28;20074;-80
2022/08/26 05:34:16;;;;;;;7.72;2.47;;;;;;;21.49;49.44;93558.44;4968821;28;20045;-80
2022/08/26 05:36:42;;;;;;;7.20;2.72;;;;;;;21.48;50.60;93554.16;4969390;28;21007;-81
2022/08/26 05:39:08;;;;;;;10.57;2.55;;;;;;;21.64;49.49;93557.28;4968378;28;20517;-83
2022/08/26 05:41:37;;;;;;;11.65;3.25;;;;;;;21.57;51.04;93541.03;4970385;28;20034;-81
2022/08/26 05:44:05;;;;;;;9.32;2.80;;;;;;;21.51;49.14;93532.50;4968972;28;20112;-82
2022/08/26 05:46:32;;;;;;;6.05;2.35;;;;;;;21.48;51.06;93519.00;4958598;28;20474;-81
2022/08/26 05:48:58;;;;;;;9.02;2.40;;;;;;;21.78;51.21;93559.97;4968468;28;20041;-80
2022/08/26 05:51:24;;;;;;;7.30;2.72;;;;;;;21.54;50.16;93522.88;4968759;28;20023;-81
2022/08/26 05:53:50;;;;;;;10.23;2.75;;;;;;;21.76;48.56;93548.75;4970655;28;20030;-80
2022/08/26 05:56:18;;;;;;;13.52;1.98;;;;;;;21.77;50.37;93542.19;4970028;28;20076;-80
2022/08/26 05:58:44;;;;;;;9.98;2.58;;;;;;;21.79;51.33;93542.56;4971208;28;20026;-80
2022/08/26 06:01:13;;;;;;;6.38;2.22;;;;;;;21.84;50.24;93551.06;4968324;28;20023;-80
2022/08/26 06:03:43;;;;;;;9.60;2.13;;;;;;;21.90;48.68;93540.63;4968704;28;20026;-81
2022/08/26 06:06:12;;;;;;;6.53;1.98;;;;;;;22.00;49.03;93553.31;4969503;28;20022;-80
2022/08/26 06:08:38;;;;;;;7.53;2.47;;;;;;;21.91;50.33;93539.44;4958689;28;20833;-81
2022/08/26 06:11:09;;;;;;;8.57;2.30;;;;;;;22.17;49.43;93573.41;4971511;28;20034;-81
2022/08/26 06:13:35;;;;;;;11.77;2.67;;;;;;;21.87;48.73;93541.38;4972731;28;20029;-80
2022/08/26 06:16:04;;;;;;;11.23;2.42;;;;;;;21.86;48.58;93539.81;4973361;28;20034;-80
2022/08/26 06:18:33;;;;;;;8.07;2.00;;;;;;;22.19;48.48;93566.41;4973790;28;20038;-80
2022/08/26 06:21:09;;;;;;;7.75;3.65;;;;;;;22.23;49.38;93578.06;4974095;28;20038;-82
2022/08/26 06:26:18;;;;;;;10.88;2.90;;;;;;;22.24;48.86;93547.09;4974588;28;20045;-81
2022/08/26 06:28:44;;;;;;;11.77;2.80;;;;;;;22.42;48.79;93582.25;4972949;28;20030;-80
2022/08/26 06:31:09;;;;;;;11.18;2.50;;;;;;;22.23;48.61;93567.22;4973851;28;20384;-80
2022/08/26 06:33:35;;;;;;;12.77;2.83;;;;;;;22.07;48.40;93537.06;4973058;28;20130;-82
2022/08/26 06:36:00;;;;;;;9.90;4.32;;;;;;;22.42;48.26;93579.53;4972360;28;20025;-80
2022/08/26 06:38:26;;;;;;;6.97;2.55;;;;;;;22.37;48.40;93568.34;4973460;28;20035;-79
2022/08/26 06:40:53;;;;;;;14.85;3.00;;;;;;;22.48;48.41;93588.03;4973553;28;20030;-80
2022/08/26 06:43:21;;;;;;;8.57;3.05;;;;;;;22.55;48.79;93582.56;4972198;28;20031;-81
2022/08/26 06:45:47;;;;;;;12.20;3.10;;;;;;;22.59;49.02;93586.03;4955271;28;20295;-80
2022/08/26 06:48:15;;;;;;;6.07;2.47;;;;;;;22.52;47.77;93580.66;4963212;28;20436;-79
2022/08/26 06:50:41;;;;;;;11.63;2.97;;;;;;;22.52;47.40;93594.22;4972973;28;20072;-81
2022/08/26 06:53:08;;;;;;;9.52;2.80;;;;;;;22.43;47.81;93580.31;4970671;28;20480;-79
2022/08/26 06:55:42;;;;;;;7.28;3.08;;;;;;;22.43;47.93;93572.19;4957349;28;20030;-79
2022/08/26 06:58:09;;;;;;;10.63;3.53;;;;;;;22.52;47.75;93588.78;4971357;28;20035;-78
2022/08/26 07:00:35;;;;;;;10.70;3.47;;;;;;;22.60;47.41;93591.06;4970969;28;20026;-81
2022/08/26 07:03:02;;;;;;;12.00;4.32;;;;;;;22.52;46.92;93573.31;4954327;28;20033;-80
2022/08/26 07:05:28;;;;;;;10.55;3.95;;;;;;;22.60;47.54;93563.19;4973807;28;20041;-80
2022/08/26 07:07:54;;;;;;;11.45;3.65;;;;;;;22.78;47.27;93582.84;4970858;28;20035;-80
2022/08/26 07:10:19;;;;;;;8.85;3.17;;;;;;;22.80;47.59;93583.22;4971545;28;20589;-80
2022/08/26 07:12:45;;;;;;;13.05;3.05;;;;;;;22.58;46.88;93588.00;4973510;28;20062;-80
2022/08/26 07:15:12;;;;;;;9.98;3.10;;;;;;;22.77;47.12;93592.16;4970451;28;20030;-79
2022/08/26 07:17:37;;;;;;;10.18;2.63;;;;;;;22.79;46.84;93587.09;4972390;28;20391;-80
2022/08/26 07:20:06;;;;;;;9.10;2.30;;;;;;;22.26;46.33;93528.50;4970684;28;20026;-82
2022/08/26 07:22:32;;;;;;;7.07;3.58;;;;;;;22.71;46.68;93580.19;4973159;28;20097;-80
2022/08/26 07:24:57;;;;;;;10.35;2.50;;;;;;;22.70;46.87;93555.00;4955074;28;20511;-80
2022/08/26 07:27:23;;;;;;;11.68;3.88;;;;;;;22.96;46.38;93590.91;4970795;28;20109;-81
2022/08/26 07:29:48;;;;;;;10.07;3.05;;;;;;;22.32;45.82;93498.31;4954295;28;20046;-80
2022/08/26 07:32:14;;;;;;;7.00;3.00;;;;;;;23.01;46.29;93598.63;4970845;28;20082;-81
2022/08/26 07:34:41;;;;;;;17.02;3.15;;;;;;;23.04;46.29;93593.19;4961368;28;20569;-80
2022/08/26 07:37:06;;;;;;;11.30;3.05;;;;;;;22.87;46.20;93556.13;4956423;28;20030;-80
2022/08/26 07:39:32;;;;;;;21.23;3.42;;;;;;;23.06;45.73;93593.56;4970329;28;20030;-80
2022/08/26 07:42:00;;;;;;;5.82;3.20;;;;;;;23.01;45.02;93583.13;4955074;28;20068;-80
2022/08/26 07:44:26;;;;;;;8.40;2.67;;;;;;;22.95;44.68;93582.00;4971169;28;20026;-81
2022/08/26 07:46:52;;;;;;;7.50;2.58;;;;;;;23.07;45.84;93581.53;4973636;28;20375;-80
2022/08/26 07:49:18;;;;;;;11.48;2.95;;;;;;;23.20;46.43;93583.78;4971546;28;20029;-80
2022/08/26 07:51:43;;;;;;;8.90;2.85;;;;;;;23.09;46.28;93557.50;4972158;28;20298;-79
2022/08/26 07:54:09;;;;;;;7.70;3.28;;;;;;;23.29;44.51;93581.38;4971270;28;20026;-81
2022/08/26 07:56:34;;;;;;;9.95;2.42;;;;;;;23.29;44.85;93581.38;4971218;28;20422;-79
2022/08/26 07:59:00;;;;;;;13.00;3.40;;;;;;;23.23;44.78;93572.13;4970500;28;20060;-80
2022/08/26 08:01:26;;;;;;;14.82;3.08;;;;;;;23.27;45.27;93576.34;4970729;28;20037;-79
2022/08/26 08:03:53;;;;;;;6.80;3.03;;;;;;;23.30;45.00;93580.22;4971439;28;20026;-80
2022/08/26 08:06:21;;;;;;;10.07;3.08;;;;;;;23.27;44.98;93570.19;4971696;28;20727;-82
2022/08/26 08:08:47;;;;;;;9.32;2.80;;;;;;;23.14;44.82;93546.22;4971455;28;20102;-79
2022/08/26 08:11:12;;;;;;;15.77;3.17;;;;;;;23.41;43.66;93572.78;4971559;28;20501;-80
2022/08/26 08:13:38;;;;;;;20.95;4.10;;;;;;;23.44;43.79;93563.84;4970091;28;20104;-79
2022/08/26 08:16:04;;;;;;;13.85;3.97;;;;;;;23.73;44.59;93605.09;4970841;28;20372;-81
2022/08/26 08:18:29;;;;;;;15.15;2.97;;;;;;;23.66;43.93;93581.50;4970148;28;20058;-80
2022/08/26 08:20:55;;;;;;;15.07;2.50;;;;;;;23.67;43.13;93574.13;4971459;28;20164;-81
2022/08/26 08:23:21;;;;;;;8.05;2.90;;;;;;;23.83;41.88;93593.38;4971555;28;20022;-80
2022/08/26 08:25:47;;;;;;;7.35;2.45;;;;;;;23.72;40.88;93582.59;4971713;28;20026;-79
2022/08/26 08:28:13;;;;;;;9.60;2.78;;;;;;;23.79;41.49;93593.41;4971949;28;20083;-79
2022/08/26 08:30:40;;;;;;;10.13;2.63;;;;;;;23.28;41.45;93520.16;4969730;28;20234;-79
2022/08/26 08:33:05;;;;;;;9.82;3.42;;;;;;;23.45;42.09;93549.09;4952967;28;20043;-79
2022/08/26 08:35:31;;;;;;;8.25;2.10;;;;;;;23.53;42.09;93558.75;4970245;28;20026;-79
2022/08/26 08:37:56;;;;;;;16.40;3.97;;;;;;;23.67;42.36;93569.47;4970697;28;20387;-79
2022/08/26 08:40:25;;;;;;;8.95;2.83;;;;;;;23.61;42.01;93586.59;4957535;28;20158;-79
2022/08/26 08:42:53;;;;;;;9.98;3.28;;;;;;;23.78;43.04;93591.09;4969585;28;20038;-79
2022/08/26 08:45:32;;;;;;;7.65;2.22;;;;;;;23.60;42.70;93574.97;4971343;28;21642;-79
2022/08/26 08:48:01;;;;;;;16.95;3.80;;;;;;;23.77;43.31;93584.88;4971251;28;20030;-79
2022/08/26 08:50:47;;;;;;;11.27;3.00;;;;;;;23.78;43.45;93570.16;4969809;28;20687;-79
2022/08/26 08:53:38;;;;;;;14.98;2.95;;;;;;;23.89;42.51;93570.06;4970027;28;20488;-79
2022/08/26 08:56:09;;;;;;;12.95;3.65;;;;;;;24.03;42.76;93580.78;4968406;28;20065;-79
2022/08/26 08:58:43;;;;;;;8.10;2.75;;;;;;;24.00;42.17;93570.72;4953219;28;20396;-78
2022/08/26 09:01:20;;;;;;;6.55;2.25;;;;;;;23.96;42.25;93565.31;4968363;28;20037;-78
2022/08/26 09:04:03;;;;;;;9.23;2.20;;;;;;;23.92;43.58;93561.84;4970739;28;20028;-80
2022/08/26 09:06:28;;;;;;;6.65;3.35;;;;;;;23.96;43.07;93565.31;4962425;28;20026;-79
2022/08/26 09:08:55;;;;;;;5.80;3.08;;;;;;;24.03;40.92;93564.47;4973503;28;20023;-80
2022/08/26 09:11:21;;;;;;;12.02;3.15;;;;;;;24.02;41.21;93558.25;4969631;28;20019;-81
2022/08/26 09:13:52;;;;;;;16.40;3.67;;;;;;;23.99;38.09;93547.44;4969969;28;20022;-80
2022/08/26 09:16:33;;;;;;;9.43;1.63;;;;;;;24.02;37.98;93539.25;4971810;28;20030;-81
2022/08/26 09:19:15;;;;;;;6.18;2.35;;;;;;;24.25;38.12;93570.47;4970254;28;20165;-83
2022/08/26 09:21:40;;;;;;;10.82;3.00;;;;;;;24.30;37.51;93568.06;4970921;28;20141;-80
2022/08/26 09:24:07;;;;;;;6.85;2.85;;;;;;;24.24;37.24;93556.13;4973203;28;20030;-80
2022/08/26 09:26:38;;;;;;;8.68;3.60;;;;;;;24.28;36.43;93564.22;4958878;28;20114;-80
2022/08/26 09:29:18;;;;;;;6.40;3.28;;;;;;;24.24;35.72;93563.50;4971123;28;20577;-80
2022/08/26 09:31:44;;;;;;;11.73;4.60;;;;;;;24.11;36.87;93541.50;4953313;28;20026;-82
2022/08/26 09:34:15;;;;;;;15.25;3.53;;;;;;;24.28;37.37;93553.34;4971602;28;20485;-80
2022/08/26 09:36:50;;;;;;;10.40;4.30;;;;;;;24.15;37.41;93538.78;4952319;28;20371;-81
2022/08/26 09:39:29;;;;;;;11.27;3.65;;;;;;;24.02;36.85;93530.31;4967854;28;20026;-80
2022/08/26 09:42:21;;;;;;;10.88;3.95;;;;;;;24.17;37.22;93560.84;4968814;28;20023;-80
2022/08/26 09:44:55;;;;;;;12.07;3.75;;;;;;;24.34;35.84;93563.38;4956419;28;20019;-80
2022/08/26 09:47:51;;;;;;;;;;;;;;;24.43;35.63;93560.16;4956387;28;20243;-81
2022/08/26 09:50:34;;;;;;;6.78;3.40;;;;;;;24.41;35.09;93559.78;4950332;28;19960;-80
2022/08/26 09:53:18;;;;;;;13.43;3.55;;;;;;;24.51;35.09;93561.63;4972904;28;20397;-80
2022/08/26 09:55:47;;;;;;;12.73;5.32;;;;;;;24.56;34.25;93558.44;4974283;28;20061;-81
2022/08/26 09:58:15;;;;;;;7.95;3.88;;;;;;;24.57;33.64;93557.28;4961991;28;20022;-80
2022/08/26 10:01:04;;;;;;;5.88;4.10;;;;;;;24.42;33.29;93523.28;4963010;28;20529;-80
2022/08/26 10:03:44;;;;;;;7.60;4.55;;;;;;;24.66;33.19;93546.66;4971285;28;20039;-80
2022/08/26 10:06:15;;;;;;;8.40;4.50;;;;;;;24.78;34.88;93551.56;4972098;28;20033;-80
2022/08/26 10:08:46;;;;;;;7.72;3.72;;;;;;;24.76;35.53;93534.91;4973612;28;20022;-80
2022/08/26 10:11:23;;;;;;;10.23;4.88;;;;;;;24.81;33.05;93542.59;4958283;28;20029;-80
2022/08/26 10:14:00;;;;;;;9.35;4.55;;;;;;;24.64;33.66;93519.09;4964665;28;20506;-79
2022/08/26 10:16:41;;;;;;;8.88;4.15;;;;;;;24.89;33.35;93540.53;4962158;28;20025;-80
2022/08/26 10:19:14;;;;;;;6.70;4.32;;;;;;;24.75;32.22;93506.16;4974232;28;20023;-80
2022/08/26 10:21:51;;;;;;;9.57;3.78;;;;;;;25.01;32.50;93541.94;4974158;28;20040;-80
2022/08/26 10:24:26;;;;;;;12.13;4.57;;;;;;;24.86;33.62;93516.91;4973013;28;20333;-80
2022/08/26 10:27:20;;;;;;;7.05;3.50;;;;;;;24.99;34.43;93536.91;4974179;28;20026;-81
2022/08/26 10:29:49;;;;;;;4.70;3.97;;;;;;;24.85;33.59;93537.88;4958270;28;20100;-80
2022/08/26 10:32:47;;;;;;;13.93;4.80;;;;;;;24.95;33.58;93532.69;4954074;28;20595;-81
2022/08/26 10:35:16;;;;;;;8.63;4.05;;;;;;;24.92;33.14;93531.59;4962812;28;20039;-81
2022/08/26 10:37:54;;;;;;;5.70;4.43;;;;;;;25.05;32.43;93521.66;4972640;28;20026;-80
2022/08/26 10:40:24;;;;;;;7.32;4.50;;;;;;;25.01;31.96;93509.28;4971165;28;20449;-79
2022/08/26 10:43:28;;;;;;;6.20;4.38;;;;;;;25.18;31.88;93538.16;4972027;28;20050;-79
2022/08/26 10:46:02;;;;;;;6.53;5.15;;;;;;;25.22;32.05;93536.94;4973329;28;20422;-80
2022/08/26 10:48:48;;;;;;;14.82;5.25;;;;;;;25.20;31.62;93538.53;4972518;28;20053;-81
2022/08/26 10:51:17;;;;;;;13.77;4.45;;;;;;;25.18;31.29;93543.63;4971552;28;20034;-80
2022/08/26 10:54:08;;;;;;;10.10;4.28;;;;;;;25.24;30.92;93536.53;4973144;28;20522;-81
2022/08/26 10:56:58;;;;;;;9.80;4.07;;;;;;;25.30;30.65;93524.00;4970624;28;20027;-80
2022/08/26 10:59:56;;;;;;;17.08;4.50;;;;;;;25.34;30.96;93529.41;4970699;28;20040;-80
2022/08/26 11:02:24;;;;;;;11.25;4.75;;;;;;;25.20;31.85;93520.25;4963094;28;20069;-80
2022/08/26 11:05:04;;;;;;;6.60;4.32;;;;;;;25.00;30.59;93483.25;4953426;28;20023;-79
2022/08/26 11:08:14;;;;;;;6.45;3.97;;;;;;;25.30;30.76;93518.56;4973081;28;20089;-79
2022/08/26 11:10:59;;;;;;;6.72;4.18;;;;;;;25.41;31.47;93534.75;4961028;28;20050;-80
2022/08/26 11:13:58;;;;;;;6.25;4.45;;;;;;;25.00;31.47;93519.41;4971745;28;20027;-79
2022/08/26 11:16:51;;;;;;;4.68;3.40;;;;;;;25.08;31.83;93523.53;4944272;28;20026;-79
2022/08/26 11:19:29;;;;;;;8.23;4.80;;;;;;;25.20;31.98;93531.16;4952563;28;20045;-79
2022/08/26 11:22:22;;;;;;;7.00;5.03;;;;;;;25.33;29.96;93528.63;4972286;28;20937;-81
2022/08/26 11:24:54;;;;;;;13.40;6.85;;;;;;;25.39;30.49;93521.53;4971426;28;20027;-79
2022/08/26 11:27:25;;;;;;;13.40;6.55;;;;;;;25.44;31.33;93517.56;4970941;28;20529;-81
2022/08/26 11:29:59;;;;;;;8.18;5.30;;;;;;;25.24;31.31;93490.25;4970518;28;20026;-78
2022/08/26 11:32:52;;;;;;;9.00;5.10;;;;;;;25.47;31.02;93517.50;4971870;28;20546;-82
2022/08/26 11:35:18;;;;;;;8.43;4.82;;;;;;;25.49;30.67;93517.88;4955958;28;20025;-81
2022/08/26 11:37:59;;;;;;;7.45;4.93;;;;;;;25.44;32.22;93506.69;4969673;28;20391;-79
2022/08/26 11:40:30;;;;;;;6.88;4.85;;;;;;;25.61;33.53;93511.84;4960944;28;20428;-80
2022/08/26 11:42:59;;;;;;;7.55;4.47;;;;;;;25.72;31.08;93508.91;4968514;28;20085;-78
2022/08/26 11:45:36;;;;;;;6.13;5.10;;;;;;;25.81;30.24;93513.84;4971682;28;20944;-78